createdAt,value
2024-04-18T00:01:19.585Z,95.30
2024-04-18T00:03:46.558Z,95.70
2024-04-18T00:06:13.540Z,95.80
2024-04-18T00:08:40.442Z,95.60
2024-04-18T00:11:07.506Z,95.40
2024-04-18T00:13:34.398Z,95.30
2024-04-18T00:16:01.291Z,95.30
2024-04-18T00:18:28.420Z,95.30
2024-04-18T00:20:55.581Z,95.30
2024-04-18T00:23:22.463Z,95.30
2024-04-18T00:25:49.361Z,95.50
2024-04-18T00:28:16.231Z,95.60
2024-04-18T00:30:43.651Z,95.50
2024-04-18T00:33:10.850Z,95.60
2024-04-18T00:35:41.193Z,95.80
2024-04-18T00:38:08.143Z,95.80
2024-04-18T00:40:35.036Z,95.70
2024-04-18T00:43:01.896Z,95.40
2024-04-18T00:45:28.841Z,95.40
2024-04-18T00:47:55.802Z,95.50
2024-04-18T00:50:22.722Z,95.70
2024-04-18T00:52:49.607Z,95.40
2024-04-18T00:55:16.522Z,95.40
2024-04-18T00:57:43.517Z,95.40
2024-04-18T01:00:11.442Z,95.20
2024-04-18T01:02:38.399Z,95.10
2024-04-18T01:05:05.473Z,95.00
2024-04-18T01:07:32.409Z,95.00
2024-04-18T01:09:59.319Z,94.90
2024-04-18T01:12:26.300Z,94.90
2024-04-18T01:14:53.215Z,95.10
2024-04-18T01:17:20.156Z,94.70
2024-04-18T01:19:47.064Z,94.50
2024-04-18T01:22:13.966Z,94.30
2024-04-18T01:24:40.861Z,94.40
2024-04-18T01:27:07.806Z,95.00
2024-04-18T01:29:34.665Z,94.50
2024-04-18T01:32:01.561Z,94.60
2024-04-18T01:34:28.635Z,94.40
2024-04-18T01:36:56.177Z,94.30
2024-04-18T01:39:23.206Z,94.00
2024-04-18T01:41:50.132Z,93.90
2024-04-18T01:44:17.017Z,94.20
2024-04-18T01:46:43.922Z,94.20
2024-04-18T01:49:10.855Z,94.60
2024-04-18T01:51:39.862Z,95.00
2024-04-18T01:54:06.800Z,94.90
2024-04-18T01:56:33.752Z,94.90
2024-04-18T01:59:05.397Z,94.60
2024-04-18T02:01:32.434Z,94.30
2024-04-18T02:03:59.636Z,94.10
2024-04-18T02:06:26.698Z,93.90
2024-04-18T02:08:53.747Z,94.40
2024-04-18T02:11:20.784Z,94.10
2024-04-18T02:13:47.764Z,94.00
2024-04-18T02:16:14.639Z,94.10
2024-04-18T02:18:41.558Z,93.90
2024-04-18T02:21:08.490Z,94.40
2024-04-18T02:23:35.421Z,94.00
2024-04-18T02:26:02.422Z,93.90
2024-04-18T02:28:30.820Z,93.70
2024-04-18T02:30:57.772Z,93.40
2024-04-18T02:33:24.781Z,93.50
2024-04-18T02:35:51.716Z,93.30
2024-04-18T02:38:18.606Z,93.30
2024-04-18T02:40:45.458Z,93.30
2024-04-18T02:43:12.372Z,93.30
2024-04-18T02:45:39.291Z,93.20
2024-04-18T02:48:06.256Z,93.30
2024-04-18T02:50:33.194Z,93.50
2024-04-18T02:53:00.814Z,94.00
2024-04-18T02:55:27.695Z,93.70
2024-04-18T02:57:54.620Z,93.90
2024-04-18T03:00:21.527Z,93.90
2024-04-18T03:02:48.494Z,94.20
2024-04-18T03:05:17.875Z,94.20
2024-04-18T03:07:44.849Z,94.10
2024-04-18T03:10:11.756Z,94.20
2024-04-18T03:12:39.008Z,94.30
2024-04-18T03:15:06.302Z,94.00
2024-04-18T03:17:33.322Z,94.10
2024-04-18T03:20:00.398Z,94.10
2024-04-18T03:22:27.527Z,94.10
2024-04-18T03:24:54.463Z,93.90
2024-04-18T03:27:21.410Z,94.20
2024-04-18T03:29:48.380Z,94.00
2024-04-18T03:32:16.083Z,94.20
2024-04-18T03:34:43.040Z,94.10
2024-04-18T03:37:10.003Z,94.50
2024-04-18T03:39:37.121Z,94.40
2024-04-18T03:42:04.101Z,94.40
2024-04-18T03:44:31.033Z,94.40
2024-04-18T03:46:57.902Z,94.70
2024-04-18T03:49:24.927Z,94.80
2024-04-18T03:51:51.912Z,95.20
2024-04-18T03:54:21.418Z,95.20
2024-04-18T03:56:48.491Z,95.50
2024-04-18T03:59:15.472Z,95.80
2024-04-18T04:01:42.532Z,95.70
2024-04-18T04:04:09.575Z,96.20
2024-04-18T04:06:36.635Z,96.10
2024-04-18T04:09:03.592Z,96.00
2024-04-18T04:11:30.599Z,95.40
2024-04-18T04:14:00.782Z,96.20
2024-04-18T04:16:28.118Z,96.00
2024-04-18T04:18:57.283Z,95.40
2024-04-18T04:21:24.324Z,95.30
2024-04-18T04:23:51.654Z,95.20
2024-04-18T04:26:18.602Z,94.70
2024-04-18T04:28:45.478Z,94.80
2024-04-18T04:31:12.383Z,94.60
2024-04-18T04:33:39.300Z,94.30
2024-04-18T04:36:06.484Z,94.50
2024-04-18T04:38:33.388Z,94.20
2024-04-18T04:41:00.278Z,94.70
2024-04-18T04:43:27.173Z,94.80
2024-04-18T04:45:57.218Z,94.50
2024-04-18T04:48:24.264Z,94.30
2024-04-18T04:51:01.582Z,94.00
2024-04-18T04:53:28.534Z,94.10
2024-04-18T04:55:56.099Z,93.70
2024-04-18T04:58:23.292Z,93.70
2024-04-18T05:00:50.642Z,94.00
2024-04-18T05:03:17.713Z,93.70
2024-04-18T05:05:44.709Z,93.60
2024-04-18T05:08:11.562Z,93.30
2024-04-18T05:10:45.538Z,93.70
2024-04-18T05:13:16.238Z,93.40
2024-04-18T05:15:44.242Z,93.40
2024-04-18T05:18:11.225Z,92.90
2024-04-18T05:20:39.427Z,92.50
2024-04-18T05:23:08.416Z,92.40
2024-04-18T05:25:35.668Z,92.90
2024-04-18T05:28:11.542Z,92.80
2024-04-18T05:30:57.887Z,92.60
2024-04-18T05:33:25.777Z,92.60
2024-04-18T05:35:53.113Z,92.80
2024-04-18T05:38:20.126Z,91.90
2024-04-18T05:40:47.259Z,91.40
2024-04-18T05:43:14.531Z,91.30
2024-04-18T05:45:41.433Z,90.50
2024-04-18T05:48:08.538Z,90.30
2024-04-18T05:50:38.007Z,90.00
2024-04-18T05:53:06.711Z,89.60
2024-04-18T05:55:33.587Z,89.00
2024-04-18T05:58:01.144Z,89.40
2024-04-18T06:00:28.071Z,86.60
2024-04-18T06:02:55.023Z,86.40
2024-04-18T06:05:21.955Z,87.00
2024-04-18T06:07:48.874Z,86.10
2024-04-18T06:10:15.903Z,84.90
2024-04-18T06:12:42.859Z,84.40
2024-04-18T06:15:09.815Z,80.50
2024-04-18T06:17:38.062Z,77.80
2024-04-18T06:20:05.648Z,78.20
2024-04-18T06:22:32.786Z,77.90
2024-04-18T06:24:59.708Z,75.90
2024-04-18T06:27:26.633Z,73.30
2024-04-18T06:29:53.520Z,70.50
2024-04-18T06:32:20.367Z,71.90
2024-04-18T06:34:48.049Z,71.20
2024-04-18T06:37:15.239Z,71.40
2024-04-18T06:39:42.264Z,72.30
2024-04-18T06:42:09.214Z,68.20
2024-04-18T06:44:36.097Z,68.30
2024-04-18T06:47:03.072Z,67.30
2024-04-18T06:49:30.162Z,68.30
2024-04-18T06:51:57.100Z,68.50
2024-04-18T06:54:24.059Z,61.60
2024-04-18T06:56:50.963Z,62.90
2024-04-18T06:59:17.847Z,59.80
2024-04-18T07:01:45.484Z,56.80
2024-04-18T07:04:12.704Z,57.60
2024-04-18T07:06:39.779Z,57.80
2024-04-18T07:09:06.701Z,55.70
2024-04-18T07:11:33.664Z,54.60
2024-04-18T07:14:02.670Z,52.50
2024-04-18T07:16:30.101Z,54.20
2024-04-18T07:18:57.314Z,52.50
2024-04-18T07:21:24.514Z,52.10
2024-04-18T07:23:51.494Z,51.70
2024-04-18T07:26:18.765Z,51.70
2024-04-18T07:28:45.719Z,52.20
2024-04-18T07:31:12.614Z,47.10
2024-04-18T07:33:39.631Z,48.60
2024-04-18T07:36:06.807Z,52.20
2024-04-18T07:38:33.913Z,52.30
2024-04-18T07:41:00.870Z,47.50
2024-04-18T07:43:27.758Z,46.70
2024-04-18T07:45:54.814Z,46.70
2024-04-18T07:48:21.964Z,47.30
2024-04-18T07:50:49.873Z,46.80
2024-04-18T07:53:16.797Z,43.20
2024-04-18T07:55:43.712Z,41.10
2024-04-18T07:58:11.464Z,42.40
2024-04-18T08:00:39.942Z,38.20
2024-04-18T08:03:09.153Z,37.70
2024-04-18T08:05:40.210Z,36.40
2024-04-18T08:08:10.773Z,35.50
2024-04-18T08:10:52.970Z,35.50
2024-04-18T08:13:30.320Z,37.00
2024-04-18T08:16:02.772Z,36.40
2024-04-18T08:18:30.032Z,34.70
2024-04-18T08:21:00.643Z,32.90
2024-04-18T08:23:27.865Z,32.80
2024-04-18T08:25:54.824Z,32.90
2024-04-18T08:28:22.070Z,35.30
2024-04-18T08:30:48.942Z,33.40
2024-04-18T08:33:15.979Z,30.50
2024-04-18T08:35:45.180Z,27.20
2024-04-18T08:38:13.476Z,27.50
2024-04-18T08:40:45.188Z,29.00
2024-04-18T08:43:13.076Z,29.70
2024-04-18T08:45:39.983Z,28.00
2024-04-18T08:48:07.319Z,25.40
2024-04-18T08:50:34.483Z,20.70
2024-04-18T08:53:01.432Z,6.00
2024-04-18T08:55:28.683Z,1.00
2024-04-18T08:58:01.789Z,1.00
2024-04-18T09:00:29.682Z,1.00
2024-04-18T09:02:56.752Z,1.00
2024-04-18T09:05:23.778Z,1.00
2024-04-18T09:07:51.843Z,1.00
2024-04-18T09:10:22.931Z,1.00
2024-04-18T09:12:52.330Z,1.00
2024-04-18T09:15:19.317Z,1.00
2024-04-18T09:17:46.332Z,1.00
2024-04-18T09:20:13.498Z,1.00
2024-04-18T09:22:40.401Z,1.00
2024-04-18T09:25:09.957Z,1.00
2024-04-18T09:27:37.936Z,1.00
2024-04-18T09:30:05.799Z,1.00
2024-04-18T09:32:32.753Z,1.00
2024-04-18T09:34:59.799Z,1.00
2024-04-18T09:37:27.055Z,1.00
2024-04-18T09:39:54.002Z,1.00
2024-04-18T09:42:24.692Z,1.00
2024-04-18T09:44:54.523Z,1.00
2024-04-18T09:47:23.369Z,1.00
2024-04-18T09:49:51.061Z,1.00
2024-04-18T09:52:18.184Z,1.00
2024-04-18T09:54:45.152Z,1.00
2024-04-18T09:57:12.093Z,1.00
2024-04-18T09:59:39.578Z,1.00
2024-04-18T10:02:09.389Z,1.00
2024-04-18T10:04:36.545Z,1.00
2024-04-18T10:07:03.410Z,1.00
2024-04-18T10:09:30.396Z,1.00
2024-04-18T10:11:57.295Z,1.00
2024-04-18T10:14:24.190Z,1.00
2024-04-18T10:16:51.236Z,1.00
2024-04-18T10:19:24.787Z,1.00
2024-04-18T10:24:33.823Z,1.00
2024-04-18T10:27:08.456Z,1.00
2024-04-18T10:29:35.977Z,1.00
2024-04-18T10:32:06.046Z,1.00
2024-04-18T10:34:32.913Z,1.00
2024-04-18T10:37:07.029Z,1.00
2024-04-18T10:39:37.743Z,1.00
2024-04-18T10:42:11.200Z,1.00
2024-04-18T10:44:38.385Z,1.00
2024-04-18T10:47:05.640Z,1.00
2024-04-18T10:49:32.659Z,1.00
2024-04-18T10:51:59.664Z,1.00
2024-04-18T10:54:26.645Z,1.00
2024-04-18T10:56:53.609Z,1.00
2024-04-18T10:59:20.599Z,1.00
2024-04-18T11:01:47.558Z,1.00
2024-04-18T11:04:14.565Z,1.00
2024-04-18T11:06:41.574Z,1.00
2024-04-18T11:09:08.979Z,1.00
2024-04-18T11:11:39.608Z,1.00
2024-04-18T11:14:08.054Z,1.00
2024-04-18T11:16:36.326Z,1.00
2024-04-18T11:19:03.423Z,1.00
2024-04-18T11:21:30.730Z,1.00
2024-04-18T11:23:57.686Z,1.00
2024-04-18T11:26:26.245Z,1.00
2024-04-18T11:28:55.584Z,1.00
2024-04-18T11:31:22.597Z,1.00
2024-04-18T11:33:49.972Z,1.00
2024-04-18T11:36:17.021Z,1.00
2024-04-18T11:38:43.977Z,1.00
2024-04-18T11:41:12.346Z,1.00
2024-04-18T11:43:39.276Z,1.00
2024-04-18T11:46:06.204Z,1.00
2024-04-18T11:48:33.326Z,1.00
2024-04-18T11:51:00.341Z,1.00
2024-04-18T11:53:27.256Z,1.00
2024-04-18T11:55:55.672Z,1.00
2024-04-18T11:58:23.258Z,1.00
2024-04-18T12:00:50.200Z,1.00
2024-04-18T12:03:17.354Z,1.00
2024-04-18T12:05:44.449Z,1.00
2024-04-18T12:08:11.328Z,1.00
2024-04-18T12:10:38.225Z,1.00
2024-04-18T12:13:05.278Z,1.00
2024-04-18T12:15:34.684Z,1.00
2024-04-18T12:18:03.543Z,1.00
2024-04-18T12:20:30.495Z,1.00
2024-04-18T12:22:57.402Z,1.00
2024-04-18T12:25:24.368Z,1.00
2024-04-18T12:27:51.315Z,1.00
2024-04-18T12:30:18.304Z,1.00
2024-04-18T12:32:45.255Z,1.00
2024-04-18T12:35:12.314Z,1.00
2024-04-18T12:37:39.341Z,1.00
2024-04-18T12:40:06.912Z,1.00
2024-04-18T12:42:35.269Z,1.00
2024-04-18T12:45:02.565Z,1.00
2024-04-18T12:47:29.585Z,1.00
2024-04-18T12:49:56.654Z,1.00
2024-04-18T12:52:23.665Z,1.00
2024-04-18T12:54:50.609Z,1.00
2024-04-18T12:57:17.517Z,1.00
2024-04-18T12:59:44.561Z,1.00
2024-04-18T13:02:13.199Z,1.00
2024-04-18T13:04:41.096Z,1.00
2024-04-18T13:07:08.036Z,1.00
2024-04-18T13:09:35.108Z,1.00
2024-04-18T13:12:05.664Z,1.00
2024-04-18T13:14:32.668Z,1.00
2024-04-18T13:16:59.692Z,1.00
2024-04-18T13:19:26.598Z,1.00
2024-04-18T13:21:55.545Z,1.00
2024-04-18T13:24:24.285Z,1.00
2024-04-18T13:26:51.808Z,1.00
2024-04-18T13:29:19.377Z,1.00
2024-04-18T13:31:46.878Z,1.00
2024-04-18T13:34:13.808Z,1.00
2024-04-18T13:36:40.758Z,1.00
2024-04-18T13:39:10.115Z,1.00
2024-04-18T13:41:42.014Z,1.00
2024-04-18T13:44:08.895Z,1.00
2024-04-18T13:46:35.824Z,1.00
2024-04-18T13:49:02.838Z,1.00
2024-04-18T13:51:29.908Z,1.00
2024-04-18T13:53:57.511Z,1.00
2024-04-18T13:56:27.580Z,1.00
2024-04-18T13:58:54.494Z,1.00
2024-04-18T14:01:21.420Z,1.00
2024-04-18T14:03:48.381Z,1.00
2024-04-18T14:06:15.400Z,1.00
2024-04-18T14:08:42.517Z,1.00
2024-04-18T14:11:09.503Z,1.00
2024-04-18T14:13:36.539Z,1.00
2024-04-18T14:16:22.348Z,1.00
2024-04-18T14:18:49.679Z,1.00
2024-04-18T14:21:19.869Z,1.00
2024-04-18T14:23:46.751Z,1.00
2024-04-18T14:26:13.679Z,1.00
2024-04-18T14:28:40.566Z,1.00
2024-04-18T14:31:07.496Z,1.00
2024-04-18T14:33:34.983Z,1.00
2024-04-18T14:36:02.102Z,1.00
2024-04-18T14:38:29.860Z,1.00
2024-04-18T14:41:05.585Z,1.00
2024-04-18T14:43:38.346Z,1.00
2024-04-18T14:46:05.306Z,1.00
2024-04-18T14:48:34.777Z,1.00
2024-04-18T14:51:01.925Z,1.00
2024-04-18T14:53:28.827Z,1.00
2024-04-18T14:55:55.887Z,1.00
2024-04-18T14:58:23.112Z,1.00
2024-04-18T15:00:51.067Z,1.00
2024-04-18T15:03:18.293Z,1.00
2024-04-18T15:05:55.303Z,1.00
2024-04-18T15:08:22.560Z,1.00
2024-04-18T15:10:49.643Z,1.00
2024-04-18T15:13:16.582Z,1.00
2024-04-18T15:15:43.696Z,1.00
2024-04-18T15:18:12.592Z,1.00
2024-04-18T15:20:39.827Z,1.00
2024-04-18T15:23:06.697Z,1.00
2024-04-18T15:25:33.646Z,1.00
2024-04-18T15:28:00.526Z,1.00
2024-04-18T15:30:27.566Z,1.00
2024-04-18T15:32:54.650Z,1.00
2024-04-18T15:35:21.712Z,1.00
2024-04-18T15:37:49.431Z,1.00
2024-04-18T15:40:17.937Z,1.00
2024-04-18T15:42:45.340Z,1.00
2024-04-18T15:45:12.348Z,1.00
2024-04-18T15:47:39.402Z,1.00
2024-04-18T15:50:06.591Z,1.00
2024-04-18T15:52:34.916Z,1.00
2024-04-18T15:55:12.318Z,1.00
2024-04-18T15:57:43.370Z,1.00
2024-04-18T16:00:11.170Z,1.00
2024-04-18T16:02:38.454Z,1.00
2024-04-18T16:05:05.754Z,1.00
2024-04-18T16:07:32.695Z,1.00
2024-04-18T16:09:59.985Z,1.00
2024-04-18T16:12:27.362Z,1.00
2024-04-18T16:14:54.474Z,1.00
2024-04-18T16:17:21.452Z,1.00
2024-04-18T16:19:49.063Z,1.00
2024-04-18T16:22:15.991Z,1.00
2024-04-18T16:24:42.925Z,1.00
2024-04-18T16:27:09.857Z,1.00
2024-04-18T16:29:36.781Z,1.00
2024-04-18T16:32:03.893Z,1.00
2024-04-18T16:34:30.803Z,1.00
2024-04-18T16:37:09.187Z,1.00
2024-04-18T16:39:40.159Z,1.00
2024-04-18T16:42:07.631Z,1.00
2024-04-18T16:44:34.626Z,1.00
2024-04-18T16:47:01.571Z,1.00
2024-04-18T16:49:29.467Z,1.00
2024-04-18T16:51:56.356Z,1.00
2024-04-18T16:54:23.304Z,1.00
2024-04-18T16:56:50.212Z,1.00
2024-04-18T16:59:18.026Z,1.00
2024-04-18T17:01:44.914Z,1.00
2024-04-18T17:04:11.863Z,1.00
2024-04-18T17:06:45.865Z,1.00
2024-04-18T17:09:16.350Z,1.00
2024-04-18T17:11:43.298Z,1.00
2024-04-18T17:14:10.181Z,1.00
2024-04-18T17:16:37.224Z,1.00
2024-04-18T17:19:04.401Z,1.00
2024-04-18T17:21:31.494Z,1.00
2024-04-18T17:23:58.611Z,1.00
2024-04-18T17:26:27.609Z,1.00
2024-04-18T17:28:56.063Z,1.00
2024-04-18T17:31:22.950Z,1.00
2024-04-18T17:33:49.895Z,1.00
2024-04-18T17:36:16.831Z,1.00
2024-04-18T17:38:43.976Z,1.00
2024-04-18T17:41:10.913Z,1.00
2024-04-18T17:43:37.820Z,1.00
2024-04-18T17:46:05.766Z,1.00
2024-04-18T17:48:32.930Z,1.00
2024-04-18T17:51:00.334Z,1.00
2024-04-18T17:53:27.232Z,1.00
2024-04-18T17:55:55.171Z,1.00
2024-04-18T17:58:22.372Z,1.00
2024-04-18T18:00:49.660Z,1.00
2024-04-18T18:03:16.872Z,1.00
2024-04-18T18:05:43.983Z,1.00
2024-04-18T18:08:10.956Z,1.00
2024-04-18T18:10:37.867Z,1.00
2024-04-18T18:13:04.993Z,1.00
2024-04-18T18:15:32.042Z,1.00
2024-04-18T18:17:59.569Z,1.00
2024-04-18T18:20:26.604Z,1.00
2024-04-18T18:22:53.519Z,1.00
2024-04-18T18:25:20.453Z,1.00
2024-04-18T18:27:47.427Z,1.00
2024-04-18T18:30:14.833Z,1.00
2024-04-18T18:32:42.072Z,1.00
2024-04-18T18:35:09.721Z,1.00
2024-04-18T18:37:36.860Z,1.00
2024-04-18T18:40:05.175Z,1.00
2024-04-18T18:42:32.346Z,1.00
2024-04-18T18:45:00.459Z,1.00
2024-04-18T18:47:27.424Z,1.00
2024-04-18T18:49:54.308Z,1.00
2024-04-18T18:52:22.149Z,1.00
2024-04-18T18:54:49.172Z,1.00
2024-04-18T18:57:16.159Z,1.00
2024-04-18T18:59:43.998Z,1.00
2024-04-18T19:02:11.083Z,1.00
2024-04-18T19:04:38.223Z,1.00
2024-04-18T19:07:05.474Z,1.00
2024-04-18T19:09:35.548Z,1.00
2024-04-18T19:12:02.461Z,1.00
2024-04-18T19:14:29.405Z,1.00
2024-04-18T19:16:56.510Z,1.00
2024-04-18T19:19:25.797Z,1.00
2024-04-18T19:21:53.122Z,1.00
2024-04-18T19:24:20.110Z,1.00
2024-04-18T19:26:49.179Z,1.00
2024-04-18T19:29:26.689Z,1.00
2024-04-18T19:31:59.276Z,1.00
2024-04-18T19:34:26.245Z,1.00
2024-04-18T19:36:53.282Z,1.00
2024-04-18T19:39:23.458Z,1.00
2024-04-18T19:41:50.619Z,1.00
2024-04-18T19:44:17.537Z,1.00
2024-04-18T19:46:44.701Z,1.00
2024-04-18T19:49:13.423Z,1.00
2024-04-18T19:51:40.832Z,1.00
2024-04-18T19:54:09.997Z,1.00
2024-04-18T19:56:36.938Z,1.00
2024-04-18T19:59:03.853Z,1.00
2024-04-18T20:01:31.051Z,1.00
2024-04-18T20:03:58.277Z,1.00
2024-04-18T20:06:26.033Z,1.00
2024-04-18T20:08:53.200Z,1.00
2024-04-18T20:11:21.001Z,1.00
2024-04-18T20:13:47.884Z,1.00
2024-04-18T20:16:14.823Z,1.00
2024-04-18T20:18:41.867Z,1.00
2024-04-18T20:21:08.916Z,1.00
2024-04-18T20:23:35.794Z,1.00
2024-04-18T20:26:02.690Z,1.00
2024-04-18T20:28:29.579Z,1.00
2024-04-18T20:30:56.534Z,1.00
2024-04-18T20:33:23.797Z,1.00
2024-04-18T20:35:50.698Z,1.00
2024-04-18T20:38:17.610Z,1.00
2024-04-18T20:40:44.441Z,1.00
2024-04-18T20:43:11.322Z,1.00
2024-04-18T20:45:38.286Z,1.00
2024-04-18T20:48:05.837Z,1.00
2024-04-18T20:50:33.576Z,1.00
2024-04-18T20:53:00.701Z,1.00
2024-04-18T20:55:27.620Z,1.00
2024-04-18T20:57:54.640Z,1.00
2024-04-18T21:05:33.620Z,1.00
2024-04-18T21:08:00.643Z,1.00
2024-04-18T21:10:27.677Z,1.00
2024-04-18T21:12:54.750Z,1.00
2024-04-18T21:15:21.842Z,1.00
2024-04-18T21:17:49.006Z,1.00
2024-04-18T21:20:16.096Z,1.00
2024-04-18T21:22:43.123Z,1.00
2024-04-18T21:25:10.580Z,1.00
2024-04-18T21:27:37.711Z,1.00
2024-04-18T21:30:04.958Z,2.80
2024-04-18T21:32:32.195Z,6.40
2024-04-18T21:34:59.252Z,7.50
2024-04-18T21:37:26.332Z,8.40
2024-04-18T21:39:53.781Z,9.70
2024-04-18T21:42:20.915Z,10.20
2024-04-18T21:44:50.048Z,18.40
2024-04-18T21:47:17.160Z,18.70
2024-04-18T21:49:44.276Z,18.90
2024-04-18T21:52:11.710Z,20.70
2024-04-18T21:54:38.811Z,21.10
2024-04-18T21:57:07.300Z,24.70
2024-04-18T21:59:36.766Z,25.00
2024-04-18T22:02:04.063Z,24.70
2024-04-18T22:04:31.286Z,25.60
2024-04-18T22:06:58.351Z,31.60
2024-04-18T22:09:26.081Z,30.40
2024-04-18T22:11:53.366Z,37.20
2024-04-18T22:14:20.446Z,41.10
2024-04-18T22:16:47.531Z,41.50
2024-04-18T22:19:14.615Z,45.80
2024-04-18T22:21:41.745Z,46.10
2024-04-18T22:24:09.075Z,46.20
2024-04-18T22:26:36.980Z,46.20
2024-04-18T22:29:04.213Z,46.50
2024-04-18T22:31:31.238Z,46.60
2024-04-18T22:33:58.443Z,46.40
2024-04-18T22:36:28.787Z,47.20
2024-04-18T22:38:57.339Z,48.00
2024-04-18T22:41:27.254Z,48.70
2024-04-18T22:43:54.485Z,49.20
2024-04-18T22:46:21.516Z,59.50
2024-04-18T22:48:48.722Z,62.80
2024-04-18T22:51:15.900Z,65.90
2024-04-18T22:53:42.962Z,65.80
2024-04-18T22:56:10.029Z,66.90
2024-04-18T22:58:37.608Z,67.80
2024-04-18T23:01:05.399Z,69.40
2024-04-18T23:03:32.739Z,74.20
2024-04-18T23:05:59.823Z,76.10
2024-04-18T23:08:26.864Z,78.20
2024-04-18T23:10:53.994Z,78.90
2024-04-18T23:13:21.027Z,80.90
2024-04-18T23:15:48.157Z,81.10
2024-04-18T23:18:15.354Z,82.60
2024-04-18T23:20:44.080Z,85.20
2024-04-18T23:23:11.124Z,84.60
2024-04-18T23:25:38.143Z,85.30
2024-04-18T23:28:05.546Z,87.60
2024-04-18T23:30:32.642Z,88.70
2024-04-18T23:32:59.730Z,89.50
2024-04-18T23:35:26.768Z,89.30
2024-04-18T23:37:53.786Z,90.20
2024-04-18T23:40:20.839Z,90.70
2024-04-18T23:42:47.949Z,91.10
2024-04-18T23:45:15.061Z,91.20
2024-04-18T23:47:42.117Z,91.20
2024-04-18T23:50:09.163Z,91.60
2024-04-18T23:52:36.180Z,91.70
2024-04-18T23:55:03.225Z,91.50
2024-04-18T23:57:30.244Z,92.00
2024-04-18T23:59:57.487Z,91.70
